European Seaway — MPDG3 — position and weather

sailwx.info

Track history (hours):
 
Tides and Currents Weather Stations Pressure Air Temp Water Temp Dewpoint Dewpoint Depression Visibility Wind Speed Wind Dir Waves Ship Positions

European Seaway

Operator: P & O Ferries

Last reported at 2017-Jun-28 06:30 UTC. Time now 2017-Jun-28 06:55 UTC.
Position N 50°58' E 001°52'.

Length 179 m; draft 5.6 m.

Type: Passenger vessel. MMSI: 232001040.

Date/timePositionNaut miles runAvg speedWind from/ knotsBaromVisibWave heightAir tempDewpointWater temp
2017-Jun-28 06:30N 50°58' E 001°52'0 0.0
2017-Jun-28 06:01N 50°58' E 001°52'0 0.0
2017-Jun-28 05:31N 50°58' E 001°52'0 0.0
2017-Jun-28 05:01N 50°58' E 001°52'0 0.0
2017-Jun-28 04:31N 50°58' E 001°52'0 0.0
2017-Jun-28 04:00N 50°58' E 001°52'0 0.0
2017-Jun-28 03:30N 50°58' E 001°52'0 0.0
2017-Jun-28 03:01N 50°58' E 001°52'0 0.0
2017-Jun-28 02:30N 50°58' E 001°52'0 0.0
2017-Jun-28 02:00N 50°58' E 001°52'0 0.0
2017-Jun-28 01:30N 50°58' E 001°52'0 0.0
2017-Jun-28 01:00N 50°58' E 001°52'0 0.0
2017-Jun-28 00:30N 50°58' E 001°52'0 0.0
2017-Jun-28 00:00N 50°58' E 001°52'0 0.0
2017-Jun-27 23:30N 50°58' E 001°52'0 0.0
2017-Jun-27 23:00N 50°58' E 001°52'0 0.0
2017-Jun-27 22:30N 50°58' E 001°52'0 0.0
2017-Jun-27 22:00N 50°58' E 001°52'0 0.0
2017-Jun-27 21:30N 50°58' E 001°52'0 0.0
2017-Jun-27 21:00N 50°58' E 001°52'0 0.0
2017-Jun-27 20:31N 50°58' E 001°52'0 0.0
2017-Jun-27 20:00N 50°58' E 001°52'0 0.0
2017-Jun-27 19:30N 50°58' E 001°52'0 0.0
2017-Jun-27 19:00N 50°58' E 001°52'2 4.5
2017-Jun-27 18:30N 50°58' E 001°48'816.9
2017-Jun-27 18:00N 51°01' E 001°35'917.7
2017-Jun-27 17:30N 51°05' E 001°23'3 5.9
2017-Jun-27 17:00N 51°07' E 001°20'0 0.0
2017-Jun-27 16:30N 51°07' E 001°20'0 0.5
2017-Jun-27 16:00N 51°07' E 001°20'714.7
2017-Jun-27 15:30N 51°04' E 001°31'714.0
2017-Jun-27 15:00N 51°01' E 001°41'713.4
2017-Jun-27 14:30N 50°58' E 001°50'0 0.4
2017-Jun-27 13:30N 50°58' E 001°51'510.0
2017-Jun-27 13:00N 50°58' E 001°43'918.9
2017-Jun-27 12:30N 51°02' E 001°29'815.1
2017-Jun-27 12:00N 51°07' E 001°20'0 0.2
2017-Jun-27 11:30N 51°07' E 001°20'0 0.0
2017-Jun-27 10:59N 51°07' E 001°20'511.3
2017-Jun-27 10:31N 51°05' E 001°28'918.6
2017-Jun-27 10:01N 50°60' E 001°40'714.4
2017-Jun-27 09:31N 50°58' E 001°51'0 0.5
2017-Jun-27 09:00N 50°58' E 001°52'0 0.0
2017-Jun-27 08:30N 50°58' E 001°52'0 0.0
2017-Jun-27 08:00N 50°58' E 001°52'0 0.0
2017-Jun-27 07:30N 50°58' E 001°52'0 0.0
2017-Jun-27 07:00N 50°58' E 001°52'0 0.0
2017-Jun-27 06:30N 50°58' E 001°52'0 0.0
2017-Jun-27 06:00N 50°58' E 001°52'0 0.0
2017-Jun-27 05:30N 50°58' E 001°52'0 0.0
2017-Jun-27 05:00N 50°58' E 001°52'0 0.0
2017-Jun-27 04:30N 50°58' E 001°52'0 0.0
2017-Jun-27 04:01N 50°58' E 001°52'0 0.0
2017-Jun-27 03:30N 50°58' E 001°52'0 0.0
2017-Jun-27 03:00N 50°58' E 001°52'0 0.0
2017-Jun-27 02:30N 50°58' E 001°52'0 0.0
2017-Jun-27 02:01N 50°58' E 001°52'0 0.0
2017-Jun-27 01:30N 50°58' E 001°52'0 0.0
2017-Jun-27 01:00N 50°58' E 001°52'0 0.0
2017-Jun-27 00:30N 50°58' E 001°52'0 0.0
2017-Jun-27 00:01N 50°58' E 001°52'0 0.0
2017-Jun-26 23:31N 50°58' E 001°52'0 0.0
2017-Jun-26 23:01N 50°58' E 001°52'0 0.0
2017-Jun-26 22:30N 50°58' E 001°52'0 0.0
2017-Jun-26 22:01N 50°58' E 001°52'0 0.0
2017-Jun-26 21:31N 50°58' E 001°52'0 0.0
2017-Jun-26 20:59N 50°58' E 001°52'0 0.0
2017-Jun-26 20:30N 50°58' E 001°52'0 0.0
2017-Jun-26 20:00N 50°58' E 001°52'0 0.0
2017-Jun-26 19:30N 50°58' E 001°52'0 0.0
2017-Jun-26 19:00N 50°58' E 001°52'2 4.7
2017-Jun-26 18:30N 50°58' E 001°48'815.9
2017-Jun-26 18:00N 51°00' E 001°36'918.5
2017-Jun-26 17:30N 51°06' E 001°24'3 5.7
2017-Jun-26 17:00N 51°07' E 001°20'0 0.0
2017-Jun-26 16:30N 51°07' E 001°20'4 8.5
2017-Jun-26 16:00N 51°06' E 001°26'918.2
2017-Jun-26 15:30N 51°01' E 001°39'816.1
2017-Jun-26 15:00N 50°58' E 001°51'1 1.4
2017-Jun-26 14:30N 50°58' E 001°52'0 0.1
2017-Jun-26 13:30N 50°58' E 001°52'0 0.0
2017-Jun-26 13:00N 50°58' E 001°52'0 0.0
2017-Jun-26 12:30N 50°58' E 001°52'0 0.0
2017-Jun-26 12:00N 50°58' E 001°52'0 0.0
2017-Jun-26 11:30N 50°58' E 001°52'0 0.0
2017-Jun-26 11:00N 50°58' E 001°52'0 0.0
2017-Jun-26 10:30N 50°58' E 001°52'0 0.0
2017-Jun-26 10:00N 50°58' E 001°52'0 0.0
2017-Jun-26 09:30N 50°58' E 001°52'0 0.0
2017-Jun-26 09:00N 50°58' E 001°52'0 0.0
2017-Jun-26 08:30N 50°58' E 001°52'0 0.0
2017-Jun-26 08:00N 50°58' E 001°52'0 0.0
2017-Jun-26 07:30N 50°58' E 001°52'0 0.0
2017-Jun-26 07:01N 50°58' E 001°52'0 0.0
2017-Jun-26 06:30N 50°58' E 001°52'0 0.0
2017-Jun-26 06:00N 50°58' E 001°52'0 0.0
2017-Jun-26 05:30N 50°58' E 001°52'0 0.0
2017-Jun-26 05:00N 50°58' E 001°52'0 0.0
2017-Jun-26 04:30N 50°58' E 001°52'0 0.0
2017-Jun-26 04:00N 50°58' E 001°52'0 0.0
2017-Jun-26 03:30N 50°58' E 001°52'0 0.0
2017-Jun-26 03:00N 50°58' E 001°52'0 0.0
2017-Jun-26 02:30N 50°58' E 001°52'0 0.0
2017-Jun-26 02:00N 50°58' E 001°52'0 0.0
2017-Jun-26 01:30N 50°58' E 001°52'0 0.0
2017-Jun-26 01:00N 50°58' E 001°52'0 0.0
2017-Jun-26 00:30N 50°58' E 001°52'0 0.0
2017-Jun-26 00:00N 50°58' E 001°52'0 0.0
2017-Jun-25 23:30N 50°58' E 001°52'0 0.0
2017-Jun-25 23:00N 50°58' E 001°52'0 0.0
2017-Jun-25 22:30N 50°58' E 001°52'0 0.0
2017-Jun-25 22:00N 50°58' E 001°52'0 0.0
2017-Jun-25 21:30N 50°58' E 001°52'0 0.0
2017-Jun-25 21:00N 50°58' E 001°52'0 0.0
2017-Jun-25 20:30N 50°58' E 001°52'0 0.0
2017-Jun-25 20:00N 50°58' E 001°52'0 0.0
2017-Jun-25 19:30N 50°58' E 001°52'0 0.0
2017-Jun-25 19:00N 50°58' E 001°52'0 0.4
2017-Jun-25 18:30N 50°58' E 001°52'713.5
2017-Jun-25 18:00N 50°59' E 001°41'918.3
2017-Jun-25 17:30N 51°04' E 001°29'712.9
2017-Jun-25 17:00N 51°07' E 001°20'0 0.0
2017-Jun-25 16:30N 51°07' E 001°20'3 5.2
2017-Jun-25 16:00N 51°07' E 001°24'917.2
2017-Jun-25 15:30N 51°03' E 001°36'816.6
2017-Jun-25 15:01N 50°58' E 001°47'3 2.8
2017-Jun-25 14:00N 50°58' E 001°52'0 0.0
2017-Jun-25 13:30N 50°58' E 001°52'0 0.5
2017-Jun-25 13:00N 50°58' E 001°52'0 0.0
2017-Jun-25 12:30N 50°58' E 001°52'0 0.0
2017-Jun-25 12:01N 50°58' E 001°52'0 0.0
2017-Jun-25 11:31N 50°58' E 001°52'0 0.0
2017-Jun-25 11:00N 50°58' E 001°52'0 0.0
2017-Jun-25 10:30N 50°58' E 001°52'0 0.0
2017-Jun-25 10:00N 50°58' E 001°52'0 0.0
2017-Jun-25 09:30N 50°58' E 001°52'0 0.0
2017-Jun-25 09:00N 50°58' E 001°52'0 0.0
2017-Jun-25 08:31N 50°58' E 001°52'0 0.0
2017-Jun-25 08:00N 50°58' E 001°52'0 0.0
2017-Jun-25 07:30N 50°58' E 001°52'0 0.0
2017-Jun-25 07:00N 50°58' E 001°52'0 0.0
2017-Jun-25 06:30N 50°58' E 001°52'0 0.0
2017-Jun-25 06:00N 50°58' E 001°52'0 0.0
2017-Jun-25 05:30N 50°58' E 001°52'0 0.0
2017-Jun-25 05:00N 50°58' E 001°52'0 0.0
2017-Jun-25 04:30N 50°58' E 001°52'0 0.0
2017-Jun-25 04:01N 50°58' E 001°52'0 0.0
2017-Jun-25 03:30N 50°58' E 001°52'0 0.0
2017-Jun-25 03:01N 50°58' E 001°52'0 0.0
2017-Jun-25 02:30N 50°58' E 001°52'0 0.0
2017-Jun-25 02:00N 50°58' E 001°52'0 0.0
2017-Jun-25 01:30N 50°58' E 001°52'0 0.0
2017-Jun-25 01:01N 50°58' E 001°52'0 0.0
2017-Jun-25 00:30N 50°58' E 001°52'0 0.0
2017-Jun-25 00:00N 50°58' E 001°52'0 0.0
2017-Jun-24 23:30N 50°58' E 001°52'0 0.0
2017-Jun-24 23:00N 50°58' E 001°52'0 0.0
2017-Jun-24 22:30N 50°58' E 001°52'0 0.0
2017-Jun-24 22:00N 50°58' E 001°52'0 0.0
2017-Jun-24 21:30N 50°58' E 001°52'0 0.0
2017-Jun-24 21:00N 50°58' E 001°52'0 0.0
2017-Jun-24 20:30N 50°58' E 001°52'0 0.0
2017-Jun-24 20:00N 50°58' E 001°52'0 0.0
2017-Jun-24 19:30N 50°58' E 001°52'0 0.0
2017-Jun-24 19:00N 50°58' E 001°52'0 0.5
2017-Jun-24 18:30N 50°58' E 001°52'510.8
2017-Jun-24 18:01N 50°58' E 001°43'917.6
2017-Jun-24 17:30N 51°03' E 001°31'816.7
2017-Jun-24 17:00N 51°07' E 001°20'0 0.0
2017-Jun-24 16:30N 51°07' E 001°20'0 0.2
2017-Jun-24 16:00N 51°07' E 001°20'815.7
2017-Jun-24 15:31N 51°04' E 001°31'917.3
2017-Jun-24 15:01N 50°59' E 001°43'6 5.7
2017-Jun-24 14:00N 50°58' E 001°52'0 0.0
2017-Jun-24 13:30N 50°58' E 001°52'612.4
2017-Jun-24 13:00N 50°58' E 001°42'918.7
2017-Jun-24 12:30N 51°03' E 001°29'713.9
2017-Jun-24 12:00N 51°07' E 001°20'0 0.0
2017-Jun-24 11:30N 51°07' E 001°20'0 0.1
2017-Jun-24 11:00N 51°07' E 001°20'611.4
2017-Jun-24 10:30N 51°05' E 001°29'917.2
2017-Jun-24 10:01N 51°01' E 001°40'714.3
2017-Jun-24 09:30N 50°58' E 001°51'1 1.1
2017-Jun-24 09:01N 50°58' E 001°52'0 0.0
2017-Jun-24 08:31N 50°58' E 001°52'0 0.2
2017-Jun-24 08:01N 50°58' E 001°52'0 0.0
2017-Jun-24 07:31N 50°58' E 001°52'0 0.0
2017-Jun-24 07:01N 50°58' E 001°52'0 0.0
2017-Jun-24 06:31N 50°58' E 001°52'0 0.0
2017-Jun-24 06:00N 50°58' E 001°52'0 0.0
2017-Jun-24 05:30N 50°58' E 001°52'0 0.0
2017-Jun-24 05:00N 50°58' E 001°52'0 0.0
2017-Jun-24 04:31N 50°58' E 001°52'0 0.0
2017-Jun-24 04:00N 50°58' E 001°52'0 0.0
2017-Jun-24 03:31N 50°58' E 001°52'0 0.0
2017-Jun-24 03:00N 50°58' E 001°52'0 0.0
2017-Jun-24 02:30N 50°58' E 001°52'0 0.0
2017-Jun-24 02:00N 50°58' E 001°52'0 0.0
2017-Jun-24 01:30N 50°58' E 001°52'0 0.0
2017-Jun-24 01:00N 50°58' E 001°52'0 0.0
2017-Jun-24 00:30N 50°58' E 001°52'0 0.0
2017-Jun-24 00:00N 50°58' E 001°52'0 0.0
2017-Jun-23 23:30N 50°58' E 001°52'0 0.0
2017-Jun-23 23:00N 50°58' E 001°52'0 0.0
2017-Jun-23 22:30N 50°58' E 001°52'0 0.0
2017-Jun-23 22:00N 50°58' E 001°52'0 0.0
2017-Jun-23 21:30N 50°58' E 001°52'0 0.0
2017-Jun-23 21:00N 50°58' E 001°52'0 0.0
2017-Jun-23 20:30N 50°58' E 001°52'0 0.0
2017-Jun-23 20:00N 50°58' E 001°52'0 0.0
2017-Jun-23 19:30N 50°58' E 001°52'0 0.2
2017-Jun-23 19:00N 50°58' E 001°52'3 5.4
2017-Jun-23 18:30N 50°58' E 001°47'816.2
2017-Jun-23 18:00N 51°00' E 001°35'918.0
2017-Jun-23 17:31N 51°06' E 001°24'3 5.6
2017-Jun-23 17:00N 51°07' E 001°20'0 0.0
2017-Jun-23 16:30N 51°07' E 001°20'2 3.6
2017-Jun-23 16:00N 51°07' E 001°23'815.0
2017-Jun-23 15:30N 51°03' E 001°33'918.5
2017-Jun-23 15:01N 50°58' E 001°45'4 7.9
2017-Jun-23 14:30N 50°58' E 001°52'0 0.0
2017-Jun-23 14:00N 50°58' E 001°52'1 1.2
2017-Jun-23 13:31N 50°58' E 001°51'917.5
2017-Jun-23 13:01N 50°60' E 001°37'918.5
2017-Jun-23 12:31N 51°05' E 001°25'4 7.9
2017-Jun-23 12:00N 51°07' E 001°20'0 0.0
2017-Jun-23 11:30N 51°07' E 001°20'0 0.0
2017-Jun-23 11:00N 51°07' E 001°20'611.6
2017-Jun-23 10:30N 51°06' E 001°29'917.4
2017-Jun-23 10:00N 51°01' E 001°40'714.3
2017-Jun-23 09:30N 50°58' E 001°51'0 1.0
2017-Jun-23 09:00N 50°58' E 001°52'0 0.0
2017-Jun-23 08:30N 50°58' E 001°52'0 0.0
2017-Jun-23 08:00N 50°58' E 001°52'0 0.0
2017-Jun-23 07:30N 50°58' E 001°52'0 0.0
2017-Jun-23 07:00N 50°58' E 001°52'0 0.0
2017-Jun-23 06:30N 50°58' E 001°52'0 0.0
2017-Jun-23 06:00N 50°58' E 001°52'0 0.0
2017-Jun-23 05:30N 50°58' E 001°52'0 0.0
2017-Jun-23 05:00N 50°58' E 001°52'0 0.0
2017-Jun-23 04:30N 50°58' E 001°52'0 0.0
2017-Jun-23 04:00N 50°58' E 001°52'0 0.0
2017-Jun-23 03:30N 50°58' E 001°52'0 0.0
2017-Jun-23 03:00N 50°58' E 001°52'0 0.0
2017-Jun-23 02:30N 50°58' E 001°52'0 0.0
2017-Jun-23 02:00N 50°58' E 001°52'0 0.0
2017-Jun-23 01:30N 50°58' E 001°52'0 0.0
2017-Jun-23 01:00N 50°58' E 001°52'0 0.0
2017-Jun-23 00:30N 50°58' E 001°52'0 0.0
2017-Jun-23 00:00N 50°58' E 001°52'0 0.0
2017-Jun-22 23:30N 50°58' E 001°52'0 0.0
2017-Jun-22 23:00N 50°58' E 001°52'0 0.0
2017-Jun-22 22:30N 50°58' E 001°52'0 0.0
2017-Jun-22 22:00N 50°58' E 001°52'0 0.0
2017-Jun-22 21:30N 50°58' E 001°52'0 0.0
2017-Jun-22 21:00N 50°58' E 001°52'0 0.0
2017-Jun-22 20:30N 50°58' E 001°52'0 0.0
2017-Jun-22 20:00N 50°58' E 001°52'0 0.0
2017-Jun-22 19:30N 50°58' E 001°52'0 0.0
2017-Jun-22 19:00N 50°58' E 001°52'4 8.4
2017-Jun-22 18:31N 50°58' E 001°45'816.4
2017-Jun-22 18:00N 50°59' E 001°32'917.5
2017-Jun-22 17:30N 51°06' E 001°23'2 4.7
2017-Jun-22 17:00N 51°07' E 001°20'0 0.0
2017-Jun-22 16:30N 51°07' E 001°20'1 1.6
2017-Jun-22 16:01N 51°07' E 001°21'816.8
2017-Jun-22 15:31N 51°03' E 001°33'917.9
2017-Jun-22 15:00N 50°58' E 001°45'4 4.3
2017-Jun-22 14:00N 50°58' E 001°52'1 2.1
2017-Jun-22 13:30N 50°58' E 001°50'816.4
2017-Jun-22 13:00N 51°01' E 001°38'918.4
2017-Jun-22 12:30N 51°05' E 001°25'4 7.3
2017-Jun-22 12:00N 51°07' E 001°20'0 0.0
2017-Jun-22 11:30N 51°07' E 001°20'0 0.1
2017-Jun-22 11:00N 51°07' E 001°20'612.7
2017-Jun-22 10:30N 51°05' E 001°29'917.0
2017-Jun-22 10:00N 51°00' E 001°41'713.9
2017-Jun-22 09:31N 50°58' E 001°51'0 0.7
2017-Jun-22 09:01N 50°58' E 001°52'0 0.0
2017-Jun-22 08:31N 50°58' E 001°52'0 0.0
2017-Jun-22 08:01N 50°58' E 001°52'0 0.0
2017-Jun-22 07:30N 50°58' E 001°52'0 0.0
2017-Jun-22 07:00N 50°58' E 001°52'0 0.0
2017-Jun-22 06:30N 50°58' E 001°52'0 0.0
2017-Jun-22 06:01N 50°58' E 001°52'0 0.0
2017-Jun-22 05:30N 50°58' E 001°52'0 0.0
2017-Jun-22 05:01N 50°58' E 001°52'0 0.0
2017-Jun-22 04:30N 50°58' E 001°52'0 0.0
2017-Jun-22 04:00N 50°58' E 001°52'0 0.0
2017-Jun-22 03:30N 50°58' E 001°52'0 0.0
2017-Jun-22 03:00N 50°58' E 001°52'0 0.0
2017-Jun-22 02:31N 50°58' E 001°52'0 0.0
2017-Jun-22 02:01N 50°58' E 001°52'0 0.0
2017-Jun-22 01:31N 50°58' E 001°52'0 0.0
2017-Jun-22 01:01N 50°58' E 001°52'0 0.0
2017-Jun-22 00:31N 50°58' E 001°52'0 0.0
2017-Jun-22 00:01N 50°58' E 001°52'0 0.0
2017-Jun-21 23:31N 50°58' E 001°52'0 0.0
2017-Jun-21 23:01N 50°58' E 001°52'0 0.0
2017-Jun-21 22:30N 50°58' E 001°52'0 0.0
2017-Jun-21 22:01N 50°58' E 001°52'0 0.0
2017-Jun-21 21:30N 50°58' E 001°52'0 0.0
2017-Jun-21 21:00N 50°58' E 001°52'0 0.0
2017-Jun-21 20:31N 50°58' E 001°52'0 0.0
2017-Jun-21 20:01N 50°58' E 001°52'3 5.6
2017-Jun-21 19:31N 50°58' E 001°47'815.9
2017-Jun-21 19:00N 50°60' E 001°35'815.1
2017-Jun-21 18:30N 51°05' E 001°26'4 9.0
2017-Jun-21 18:01N 51°08' E 001°20'0 0.0
2017-Jun-21 17:30N 51°08' E 001°20'0 0.0
2017-Jun-21 17:01N 51°08' E 001°20'0 0.0
2017-Jun-21 16:31N 51°08' E 001°20'0 0.0
2017-Jun-21 16:00N 51°08' E 001°20'0 0.0
2017-Jun-21 15:30N 51°08' E 001°20'0 0.0
2017-Jun-21 15:00N 51°08' E 001°20'0 0.0
2017-Jun-21 14:00N 51°08' E 001°20'0 0.0
2017-Jun-21 13:30N 51°08' E 001°20'0 0.0
2017-Jun-21 13:01N 51°08' E 001°20'0 0.0
2017-Jun-21 12:31N 51°08' E 001°20'0 0.0
2017-Jun-21 12:00N 51°08' E 001°20'0 0.7
2017-Jun-21 11:30N 51°07' E 001°20'0 0.7
2017-Jun-21 11:00N 51°07' E 001°20'714.2
2017-Jun-21 10:30N 51°02' E 001°27'917.0
2017-Jun-21 10:00N 50°53' E 001°27'918.4
2017-Jun-21 09:30N 50°44' E 001°23'917.6
2017-Jun-21 09:00N 50°37' E 001°15'917.3
2017-Jun-21 08:30N 50°31' E 001°05'2617.0
2017-Jun-21 06:59N 50°23' E 000°27'817.1
2017-Jun-21 06:30N 50°21' E 000°14'817.1
2017-Jun-21 06:00N 50°19' E 000°01'1817.1
2017-Jun-21 04:59N 50°15' W 000°26'817.1
2017-Jun-21 04:30N 50°14' W 000°38'917.1
2017-Jun-21 04:00N 50°12' W 000°51'2217.2
2017-Jun-21 02:43N 50°07' W 001°25'417.4
2017-Jun-21 02:30N 50°06' W 001°31'917.6
2017-Jun-21 01:59N 50°04' W 001°44'918.0
2017-Jun-21 01:31N 50°01' W 001°57'917.8
2017-Jun-21 01:00N 49°59' W 002°10'917.4
2017-Jun-21 00:31N 49°56' W 002°23'713.4
2017-Jun-21 00:00N 49°55' W 002°33'612.0
2017-Jun-20 23:30N 49°53' W 002°42'611.8
2017-Jun-20 23:00N 49°51' W 002°51'612.0
2017-Jun-20 22:30N 49°50' W 002°60'612.4
2017-Jun-20 22:00N 49°48' W 003°09'612.6
2017-Jun-20 21:30N 49°48' W 003°19'612.5
2017-Jun-20 21:00N 49°48' W 003°29'612.8
2017-Jun-20 20:30N 49°48' W 003°39'613.0
2017-Jun-20 20:00N 49°49' W 003°49'713.1
2017-Jun-20 19:30N 49°49' W 003°59'713.2
2017-Jun-20 19:00N 49°49' W 004°09'713.4
2017-Jun-20 18:30N 49°49' W 004°19'713.5
2017-Jun-20 18:00N 49°48' W 004°30'713.5
2017-Jun-20 17:30N 49°48' W 004°40'713.6
2017-Jun-20 17:00N 49°49' W 004°51'713.9
2017-Jun-20 16:30N 49°49' W 005°01'714.2
2017-Jun-20 16:00N 49°49' W 005°12'714.3
2017-Jun-20 15:30N 49°49' W 005°24'714.3
2017-Jun-20 15:00N 49°49' W 005°35'1414.3
2017-Jun-20 14:00N 49°53' W 005°56'612.5
2017-Jun-20 13:30N 49°58' W 006°02'814.3
2017-Jun-20 12:57N 50°06' W 006°01'613.9
2017-Jun-20 12:30N 50°12' W 006°01'713.7
2017-Jun-20 12:01N 50°19' W 006°01'713.8
2017-Jun-20 11:30N 50°26' W 005°60'713.8
2017-Jun-20 11:00N 50°32' W 005°60'714.0
2017-Jun-20 10:30N 50°39' W 005°60'714.3
2017-Jun-20 10:01N 50°47' W 005°60'714.4
2017-Jun-20 09:31N 50°54' W 006°00'714.6
2017-Jun-20 09:01N 51°01' W 006°00'714.7
2017-Jun-20 08:31N 51°08' W 006°00'714.6
2017-Jun-20 08:00N 51°16' W 006°01'714.7
2017-Jun-20 07:30N 51°23' W 006°01'714.6
2017-Jun-20 07:00N 51°30' W 006°01'814.3
2017-Jun-20 06:27N 51°38' W 006°00'614.2
2017-Jun-20 06:01N 51°44' W 005°58'813.9
2017-Jun-20 05:27N 51°52' W 005°55'913.4
2017-Jun-20 04:49N 52°00' W 005°52'11214.3
2017-Jun-19 20:59N 53°50' W 005°16'814.8
2017-Jun-19 20:28N 53°58' W 005°14'714.7
2017-Jun-19 20:01N 54°04' W 005°12'714.7
2017-Jun-19 19:31N 54°11' W 005°10'714.6
2017-Jun-19 19:01N 54°19' W 005°08'714.7
2017-Jun-19 18:31N 54°26' W 005°08'714.2
2017-Jun-19 18:01N 54°33' W 005°13'815.4
2017-Jun-19 17:31N 54°39' W 005°20'816.0
2017-Jun-19 17:01N 54°45' W 005°28'815.8
2017-Jun-19 16:31N 54°50' W 005°39'510.5
2017-Jun-19 16:00N 54°51' W 005°48'0 0.6
2017-Jun-19 15:30N 54°51' W 005°48'0 0.0
2017-Jun-19 15:00N 54°51' W 005°48'0 0.0
2017-Jun-19 14:30N 54°51' W 005°48'0 0.0
2017-Jun-19 13:30N 54°51' W 005°48'0 0.0
2017-Jun-19 13:00N 54°51' W 005°48'0 0.0
2017-Jun-19 12:30N 54°51' W 005°48'0 0.0
2017-Jun-19 12:00N 54°51' W 005°48'0 0.0
2017-Jun-19 11:30N 54°51' W 005°48'0 0.0
2017-Jun-19 11:00N 54°51' W 005°48'0 0.0
2017-Jun-19 10:30N 54°51' W 005°48'0 0.0
2017-Jun-19 10:00N 54°51' W 005°48'0 0.0
2017-Jun-19 09:30N 54°51' W 005°48'0 0.2
2017-Jun-19 09:01N 54°51' W 005°48'0 0.1
2017-Jun-19 08:31N 54°51' W 005°48'1 2.4
2017-Jun-19 08:00N 54°52' W 005°47'1019.7
2017-Jun-19 07:30N 54°56' W 005°32'1019.8
2017-Jun-19 07:00N 55°00' W 005°16'815.0
2017-Jun-19 06:30N 54°59' W 005°03'2 3.6
2017-Jun-19 06:01N 54°58' W 005°01'0 0.0
2017-Jun-19 05:30N 54°58' W 005°01'0 0.0
2017-Jun-19 05:01N 54°58' W 005°01'5 7.9
2017-Jun-19 04:23N 55°02' W 005°06'717.6
2017-Jun-19 04:00N 54°59' W 005°17'918.8
2017-Jun-19 03:30N 54°55' W 005°32'1019.1
2017-Jun-19 03:00N 54°52' W 005°48'1 1.6
2017-Jun-19 02:31N 54°51' W 005°48'0 0.0
2017-Jun-19 02:00N 54°51' W 005°48'0 0.0
2017-Jun-19 01:30N 54°51' W 005°48'0 0.0
2017-Jun-19 01:01N 54°51' W 005°48'0 0.0
2017-Jun-19 00:30N 54°51' W 005°48'0 0.0
2017-Jun-19 00:00N 54°51' W 005°48'2 4.3
2017-Jun-18 23:30N 54°52' W 005°46'1019.3
2017-Jun-18 23:00N 54°58' W 005°31'1019.5
2017-Jun-18 22:30N 55°01' W 005°15'714.7
2017-Jun-18 22:00N 54°59' W 005°03'2 3.2
2017-Jun-18 21:30N 54°58' W 005°01'0 0.0
2017-Jun-18 21:01N 54°58' W 005°01'5 8.7
2017-Jun-18 20:28N 55°02' W 005°06'918.9
2017-Jun-18 20:01N 54°59' W 005°20'918.9
2017-Jun-18 19:31N 54°55' W 005°35'816.4
2017-Jun-18 19:01N 54°51' W 005°48'0 0.3
2017-Jun-18 18:30N 54°51' W 005°48'0 0.0
2017-Jun-18 18:00N 54°51' W 005°48'0 0.0
2017-Jun-18 17:30N 54°51' W 005°48'3 6.3
2017-Jun-18 17:00N 54°53' W 005°43'1019.1
2017-Jun-18 16:30N 54°57' W 005°28'1019.3
2017-Jun-18 16:00N 55°01' W 005°13'714.1
2017-Jun-18 15:30N 54°58' W 005°02'1 1.9
2017-Jun-18 15:00N 54°58' W 005°01'0 0.0
2017-Jun-18 14:00N 54°58' W 005°01'3 6.8
2017-Jun-18 13:30N 55°01' W 005°04'816.2
2017-Jun-18 13:00N 54°59' W 005°18'1019.0
2017-Jun-18 12:30N 54°55' W 005°33'918.0
2017-Jun-18 12:00N 54°51' W 005°48'0 0.9
2017-Jun-18 11:30N 54°51' W 005°48'0 0.0
2017-Jun-18 11:00N 54°51' W 005°48'0 0.0
2017-Jun-18 10:30N 54°51' W 005°48'0 0.0
2017-Jun-18 10:00N 54°51' W 005°48'0 0.0
2017-Jun-18 09:30N 54°51' W 005°48'0 0.0
2017-Jun-18 09:00N 54°51' W 005°48'0 0.0
2017-Jun-18 08:30N 54°51' W 005°48'2 3.8
2017-Jun-18 08:00N 54°52' W 005°46'1019.8
2017-Jun-18 07:30N 54°56' W 005°30'1019.2
2017-Jun-18 07:00N 55°00' W 005°15'714.8
2017-Jun-18 06:30N 54°59' W 005°03'  
Track history (hours):
 
Tides and Currents Weather Stations Pressure Air Temp Water Temp Dewpoint Dewpoint Depression Visibility Wind Speed Wind Dir Waves Ship Positions

European Seaway

Operator: P & O Ferries

Last reported at 2017-Jun-28 06:30 UTC. Time now 2017-Jun-28 06:55 UTC.
Position N 50°58' E 001°52'.

Length 179 m; draft 5.6 m.

Type: Passenger vessel. MMSI: 232001040.

Date/timePositionNaut miles runAvg speedWind from/ knotsBaromVisibWave heightAir tempDewpointWater temp
2017-Jun-28 06:30N 50°58' E 001°52'0 0.0
2017-Jun-28 06:01N 50°58' E 001°52'0 0.0
2017-Jun-28 05:31N 50°58' E 001°52'0 0.0
2017-Jun-28 05:01N 50°58' E 001°52'0 0.0
2017-Jun-28 04:31N 50°58' E 001°52'0 0.0
2017-Jun-28 04:00N 50°58' E 001°52'0 0.0
2017-Jun-28 03:30N 50°58' E 001°52'0 0.0
2017-Jun-28 03:01N 50°58' E 001°52'0 0.0
2017-Jun-28 02:30N 50°58' E 001°52'0 0.0
2017-Jun-28 02:00N 50°58' E 001°52'0 0.0
2017-Jun-28 01:30N 50°58' E 001°52'0 0.0
2017-Jun-28 01:00N 50°58' E 001°52'0 0.0
2017-Jun-28 00:30N 50°58' E 001°52'0 0.0
2017-Jun-28 00:00N 50°58' E 001°52'0 0.0
2017-Jun-27 23:30N 50°58' E 001°52'0 0.0
2017-Jun-27 23:00N 50°58' E 001°52'0 0.0
2017-Jun-27 22:30N 50°58' E 001°52'0 0.0
2017-Jun-27 22:00N 50°58' E 001°52'0 0.0
2017-Jun-27 21:30N 50°58' E 001°52'0 0.0
2017-Jun-27 21:00N 50°58' E 001°52'0 0.0
2017-Jun-27 20:31N 50°58' E 001°52'0 0.0
2017-Jun-27 20:00N 50°58' E 001°52'0 0.0
2017-Jun-27 19:30N 50°58' E 001°52'0 0.0
2017-Jun-27 19:00N 50°58' E 001°52'2 4.5
2017-Jun-27 18:30N 50°58' E 001°48'816.9
2017-Jun-27 18:00N 51°01' E 001°35'917.7
2017-Jun-27 17:30N 51°05' E 001°23'3 5.9
2017-Jun-27 17:00N 51°07' E 001°20'0 0.0
2017-Jun-27 16:30N 51°07' E 001°20'0 0.5
2017-Jun-27 16:00N 51°07' E 001°20'714.7
2017-Jun-27 15:30N 51°04' E 001°31'714.0
2017-Jun-27 15:00N 51°01' E 001°41'713.4
2017-Jun-27 14:30N 50°58' E 001°50'0 0.4
2017-Jun-27 13:30N 50°58' E 001°51'510.0
2017-Jun-27 13:00N 50°58' E 001°43'918.9
2017-Jun-27 12:30N 51°02' E 001°29'815.1
2017-Jun-27 12:00N 51°07' E 001°20'0 0.2
2017-Jun-27 11:30N 51°07' E 001°20'0 0.0
2017-Jun-27 10:59N 51°07' E 001°20'511.3
2017-Jun-27 10:31N 51°05' E 001°28'918.6
2017-Jun-27 10:01N 50°60' E 001°40'714.4
2017-Jun-27 09:31N 50°58' E 001°51'0 0.5
2017-Jun-27 09:00N 50°58' E 001°52'0 0.0
2017-Jun-27 08:30N 50°58' E 001°52'0 0.0
2017-Jun-27 08:00N 50°58' E 001°52'0 0.0
2017-Jun-27 07:30N 50°58' E 001°52'0 0.0
2017-Jun-27 07:00N 50°58' E 001°52'0 0.0
2017-Jun-27 06:30N 50°58' E 001°52'0 0.0
2017-Jun-27 06:00N 50°58' E 001°52'0 0.0
2017-Jun-27 05:30N 50°58' E 001°52'0 0.0
2017-Jun-27 05:00N 50°58' E 001°52'0 0.0
2017-Jun-27 04:30N 50°58' E 001°52'0 0.0
2017-Jun-27 04:01N 50°58' E 001°52'0 0.0
2017-Jun-27 03:30N 50°58' E 001°52'0 0.0
2017-Jun-27 03:00N 50°58' E 001°52'0 0.0
2017-Jun-27 02:30N 50°58' E 001°52'0 0.0
2017-Jun-27 02:01N 50°58' E 001°52'0 0.0
2017-Jun-27 01:30N 50°58' E 001°52'0 0.0
2017-Jun-27 01:00N 50°58' E 001°52'0 0.0
2017-Jun-27 00:30N 50°58' E 001°52'0 0.0
2017-Jun-27 00:01N 50°58' E 001°52'0 0.0
2017-Jun-26 23:31N 50°58' E 001°52'0 0.0
2017-Jun-26 23:01N 50°58' E 001°52'0 0.0
2017-Jun-26 22:30N 50°58' E 001°52'0 0.0
2017-Jun-26 22:01N 50°58' E 001°52'0 0.0
2017-Jun-26 21:31N 50°58' E 001°52'0 0.0
2017-Jun-26 20:59N 50°58' E 001°52'0 0.0
2017-Jun-26 20:30N 50°58' E 001°52'0 0.0
2017-Jun-26 20:00N 50°58' E 001°52'0 0.0
2017-Jun-26 19:30N 50°58' E 001°52'0 0.0
2017-Jun-26 19:00N 50°58' E 001°52'2 4.7
2017-Jun-26 18:30N 50°58' E 001°48'815.9
2017-Jun-26 18:00N 51°00' E 001°36'918.5
2017-Jun-26 17:30N 51°06' E 001°24'3 5.7
2017-Jun-26 17:00N 51°07' E 001°20'0 0.0
2017-Jun-26 16:30N 51°07' E 001°20'4 8.5
2017-Jun-26 16:00N 51°06' E 001°26'918.2
2017-Jun-26 15:30N 51°01' E 001°39'816.1
2017-Jun-26 15:00N 50°58' E 001°51'1 1.4
2017-Jun-26 14:30N 50°58' E 001°52'0 0.1
2017-Jun-26 13:30N 50°58' E 001°52'0 0.0
2017-Jun-26 13:00N 50°58' E 001°52'0 0.0
2017-Jun-26 12:30N 50°58' E 001°52'0 0.0
2017-Jun-26 12:00N 50°58' E 001°52'0 0.0
2017-Jun-26 11:30N 50°58' E 001°52'0 0.0
2017-Jun-26 11:00N 50°58' E 001°52'0 0.0
2017-Jun-26 10:30N 50°58' E 001°52'0 0.0
2017-Jun-26 10:00N 50°58' E 001°52'0 0.0
2017-Jun-26 09:30N 50°58' E 001°52'0 0.0
2017-Jun-26 09:00N 50°58' E 001°52'0 0.0
2017-Jun-26 08:30N 50°58' E 001°52'0 0.0
2017-Jun-26 08:00N 50°58' E 001°52'0 0.0
2017-Jun-26 07:30N 50°58' E 001°52'0 0.0
2017-Jun-26 07:01N 50°58' E 001°52'0 0.0
2017-Jun-26 06:30N 50°58' E 001°52'0 0.0
2017-Jun-26 06:00N 50°58' E 001°52'0 0.0
2017-Jun-26 05:30N 50°58' E 001°52'0 0.0
2017-Jun-26 05:00N 50°58' E 001°52'0 0.0
2017-Jun-26 04:30N 50°58' E 001°52'0 0.0
2017-Jun-26 04:00N 50°58' E 001°52'0 0.0
2017-Jun-26 03:30N 50°58' E 001°52'0 0.0
2017-Jun-26 03:00N 50°58' E 001°52'0 0.0
2017-Jun-26 02:30N 50°58' E 001°52'0 0.0
2017-Jun-26 02:00N 50°58' E 001°52'0 0.0
2017-Jun-26 01:30N 50°58' E 001°52'0 0.0
2017-Jun-26 01:00N 50°58' E 001°52'0 0.0
2017-Jun-26 00:30N 50°58' E 001°52'0 0.0
2017-Jun-26 00:00N 50°58' E 001°52'0 0.0
2017-Jun-25 23:30N 50°58' E 001°52'0 0.0
2017-Jun-25 23:00N 50°58' E 001°52'0 0.0
2017-Jun-25 22:30N 50°58' E 001°52'0 0.0
2017-Jun-25 22:00N 50°58' E 001°52'0 0.0
2017-Jun-25 21:30N 50°58' E 001°52'0 0.0
2017-Jun-25 21:00N 50°58' E 001°52'0 0.0
2017-Jun-25 20:30N 50°58' E 001°52'0 0.0
2017-Jun-25 20:00N 50°58' E 001°52'0 0.0
2017-Jun-25 19:30N 50°58' E 001°52'0 0.0
2017-Jun-25 19:00N 50°58' E 001°52'0 0.4
2017-Jun-25 18:30N 50°58' E 001°52'713.5
2017-Jun-25 18:00N 50°59' E 001°41'918.3
2017-Jun-25 17:30N 51°04' E 001°29'712.9
2017-Jun-25 17:00N 51°07' E 001°20'0 0.0
2017-Jun-25 16:30N 51°07' E 001°20'3 5.2
2017-Jun-25 16:00N 51°07' E 001°24'917.2
2017-Jun-25 15:30N 51°03' E 001°36'816.6
2017-Jun-25 15:01N 50°58' E 001°47'3 2.8
2017-Jun-25 14:00N 50°58' E 001°52'0 0.0
2017-Jun-25 13:30N 50°58' E 001°52'0 0.5
2017-Jun-25 13:00N 50°58' E 001°52'0 0.0
2017-Jun-25 12:30N 50°58' E 001°52'0 0.0
2017-Jun-25 12:01N 50°58' E 001°52'0 0.0
2017-Jun-25 11:31N 50°58' E 001°52'0 0.0
2017-Jun-25 11:00N 50°58' E 001°52'0 0.0
2017-Jun-25 10:30N 50°58' E 001°52'0 0.0
2017-Jun-25 10:00N 50°58' E 001°52'0 0.0
2017-Jun-25 09:30N 50°58' E 001°52'0 0.0
2017-Jun-25 09:00N 50°58' E 001°52'0 0.0
2017-Jun-25 08:31N 50°58' E 001°52'0 0.0
2017-Jun-25 08:00N 50°58' E 001°52'0 0.0
2017-Jun-25 07:30N 50°58' E 001°52'0 0.0
2017-Jun-25 07:00N 50°58' E 001°52'0 0.0
2017-Jun-25 06:30N 50°58' E 001°52'0 0.0
2017-Jun-25 06:00N 50°58' E 001°52'0 0.0
2017-Jun-25 05:30N 50°58' E 001°52'0 0.0
2017-Jun-25 05:00N 50°58' E 001°52'0 0.0
2017-Jun-25 04:30N 50°58' E 001°52'0 0.0
2017-Jun-25 04:01N 50°58' E 001°52'0 0.0
2017-Jun-25 03:30N 50°58' E 001°52'0 0.0
2017-Jun-25 03:01N 50°58' E 001°52'0 0.0
2017-Jun-25 02:30N 50°58' E 001°52'0 0.0
2017-Jun-25 02:00N 50°58' E 001°52'0 0.0
2017-Jun-25 01:30N 50°58' E 001°52'0 0.0
2017-Jun-25 01:01N 50°58' E 001°52'0 0.0
2017-Jun-25 00:30N 50°58' E 001°52'0 0.0
2017-Jun-25 00:00N 50°58' E 001°52'0 0.0
2017-Jun-24 23:30N 50°58' E 001°52'0 0.0
2017-Jun-24 23:00N 50°58' E 001°52'0 0.0
2017-Jun-24 22:30N 50°58' E 001°52'0 0.0
2017-Jun-24 22:00N 50°58' E 001°52'0 0.0
2017-Jun-24 21:30N 50°58' E 001°52'0 0.0
2017-Jun-24 21:00N 50°58' E 001°52'0 0.0
2017-Jun-24 20:30N 50°58' E 001°52'0 0.0
2017-Jun-24 20:00N 50°58' E 001°52'0 0.0
2017-Jun-24 19:30N 50°58' E 001°52'0 0.0
2017-Jun-24 19:00N 50°58' E 001°52'0 0.5
2017-Jun-24 18:30N 50°58' E 001°52'510.8
2017-Jun-24 18:01N 50°58' E 001°43'917.6
2017-Jun-24 17:30N 51°03' E 001°31'816.7
2017-Jun-24 17:00N 51°07' E 001°20'0 0.0
2017-Jun-24 16:30N 51°07' E 001°20'0 0.2
2017-Jun-24 16:00N 51°07' E 001°20'815.7
2017-Jun-24 15:31N 51°04' E 001°31'917.3
2017-Jun-24 15:01N 50°59' E 001°43'6 5.7
2017-Jun-24 14:00N 50°58' E 001°52'0 0.0
2017-Jun-24 13:30N 50°58' E 001°52'612.4
2017-Jun-24 13:00N 50°58' E 001°42'918.7
2017-Jun-24 12:30N 51°03' E 001°29'713.9
2017-Jun-24 12:00N 51°07' E 001°20'0 0.0
2017-Jun-24 11:30N 51°07' E 001°20'0 0.1
2017-Jun-24 11:00N 51°07' E 001°20'611.4
2017-Jun-24 10:30N 51°05' E 001°29'917.2
2017-Jun-24 10:01N 51°01' E 001°40'714.3
2017-Jun-24 09:30N 50°58' E 001°51'1 1.1
2017-Jun-24 09:01N 50°58' E 001°52'0 0.0
2017-Jun-24 08:31N 50°58' E 001°52'0 0.2
2017-Jun-24 08:01N 50°58' E 001°52'0 0.0
2017-Jun-24 07:31N 50°58' E 001°52'0 0.0
2017-Jun-24 07:01N 50°58' E 001°52'0 0.0
2017-Jun-24 06:31N 50°58' E 001°52'0 0.0
2017-Jun-24 06:00N 50°58' E 001°52'0 0.0
2017-Jun-24 05:30N 50°58' E 001°52'0 0.0
2017-Jun-24 05:00N 50°58' E 001°52'0 0.0
2017-Jun-24 04:31N 50°58' E 001°52'0 0.0
2017-Jun-24 04:00N 50°58' E 001°52'0 0.0
2017-Jun-24 03:31N 50°58' E 001°52'0 0.0
2017-Jun-24 03:00N 50°58' E 001°52'0 0.0
2017-Jun-24 02:30N 50°58' E 001°52'0 0.0
2017-Jun-24 02:00N 50°58' E 001°52'0 0.0
2017-Jun-24 01:30N 50°58' E 001°52'0 0.0
2017-Jun-24 01:00N 50°58' E 001°52'0 0.0
2017-Jun-24 00:30N 50°58' E 001°52'0 0.0
2017-Jun-24 00:00N 50°58' E 001°52'0 0.0
2017-Jun-23 23:30N 50°58' E 001°52'0 0.0
2017-Jun-23 23:00N 50°58' E 001°52'0 0.0
2017-Jun-23 22:30N 50°58' E 001°52'0 0.0
2017-Jun-23 22:00N 50°58' E 001°52'0 0.0
2017-Jun-23 21:30N 50°58' E 001°52'0 0.0
2017-Jun-23 21:00N 50°58' E 001°52'0 0.0
2017-Jun-23 20:30N 50°58' E 001°52'0 0.0
2017-Jun-23 20:00N 50°58' E 001°52'0 0.0
2017-Jun-23 19:30N 50°58' E 001°52'0 0.2
2017-Jun-23 19:00N 50°58' E 001°52'3 5.4
2017-Jun-23 18:30N 50°58' E 001°47'816.2
2017-Jun-23 18:00N 51°00' E 001°35'918.0
2017-Jun-23 17:31N 51°06' E 001°24'3 5.6
2017-Jun-23 17:00N 51°07' E 001°20'0 0.0
2017-Jun-23 16:30N 51°07' E 001°20'2 3.6
2017-Jun-23 16:00N 51°07' E 001°23'815.0
2017-Jun-23 15:30N 51°03' E 001°33'918.5
2017-Jun-23 15:01N 50°58' E 001°45'4 7.9
2017-Jun-23 14:30N 50°58' E 001°52'0 0.0
2017-Jun-23 14:00N 50°58' E 001°52'1 1.2
2017-Jun-23 13:31N 50°58' E 001°51'917.5
2017-Jun-23 13:01N 50°60' E 001°37'918.5
2017-Jun-23 12:31N 51°05' E 001°25'4 7.9
2017-Jun-23 12:00N 51°07' E 001°20'0 0.0
2017-Jun-23 11:30N 51°07' E 001°20'0 0.0
2017-Jun-23 11:00N 51°07' E 001°20'611.6
2017-Jun-23 10:30N 51°06' E 001°29'917.4
2017-Jun-23 10:00N 51°01' E 001°40'714.3
2017-Jun-23 09:30N 50°58' E 001°51'0 1.0
2017-Jun-23 09:00N 50°58' E 001°52'0 0.0
2017-Jun-23 08:30N 50°58' E 001°52'0 0.0
2017-Jun-23 08:00N 50°58' E 001°52'0 0.0
2017-Jun-23 07:30N 50°58' E 001°52'0 0.0
2017-Jun-23 07:00N 50°58' E 001°52'0 0.0
2017-Jun-23 06:30N 50°58' E 001°52'0 0.0
2017-Jun-23 06:00N 50°58' E 001°52'0 0.0
2017-Jun-23 05:30N 50°58' E 001°52'0 0.0
2017-Jun-23 05:00N 50°58' E 001°52'0 0.0
2017-Jun-23 04:30N 50°58' E 001°52'0 0.0
2017-Jun-23 04:00N 50°58' E 001°52'0 0.0
2017-Jun-23 03:30N 50°58' E 001°52'0 0.0
2017-Jun-23 03:00N 50°58' E 001°52'0 0.0
2017-Jun-23 02:30N 50°58' E 001°52'0 0.0
2017-Jun-23 02:00N 50°58' E 001°52'0 0.0
2017-Jun-23 01:30N 50°58' E 001°52'0 0.0
2017-Jun-23 01:00N 50°58' E 001°52'0 0.0
2017-Jun-23 00:30N 50°58' E 001°52'0 0.0
2017-Jun-23 00:00N 50°58' E 001°52'0 0.0
2017-Jun-22 23:30N 50°58' E 001°52'0 0.0
2017-Jun-22 23:00N 50°58' E 001°52'0 0.0
2017-Jun-22 22:30N 50°58' E 001°52'0 0.0
2017-Jun-22 22:00N 50°58' E 001°52'0 0.0
2017-Jun-22 21:30N 50°58' E 001°52'0 0.0
2017-Jun-22 21:00N 50°58' E 001°52'0 0.0
2017-Jun-22 20:30N 50°58' E 001°52'0 0.0
2017-Jun-22 20:00N 50°58' E 001°52'0 0.0
2017-Jun-22 19:30N 50°58' E 001°52'0 0.0
2017-Jun-22 19:00N 50°58' E 001°52'4 8.4
2017-Jun-22 18:31N 50°58' E 001°45'816.4
2017-Jun-22 18:00N 50°59' E 001°32'917.5
2017-Jun-22 17:30N 51°06' E 001°23'2 4.7
2017-Jun-22 17:00N 51°07' E 001°20'0 0.0
2017-Jun-22 16:30N 51°07' E 001°20'1 1.6
2017-Jun-22 16:01N 51°07' E 001°21'816.8
2017-Jun-22 15:31N 51°03' E 001°33'917.9
2017-Jun-22 15:00N 50°58' E 001°45'4 4.3
2017-Jun-22 14:00N 50°58' E 001°52'1 2.1
2017-Jun-22 13:30N 50°58' E 001°50'816.4
2017-Jun-22 13:00N 51°01' E 001°38'918.4
2017-Jun-22 12:30N 51°05' E 001°25'4 7.3
2017-Jun-22 12:00N 51°07' E 001°20'0 0.0
2017-Jun-22 11:30N 51°07' E 001°20'0 0.1
2017-Jun-22 11:00N 51°07' E 001°20'612.7
2017-Jun-22 10:30N 51°05' E 001°29'917.0
2017-Jun-22 10:00N 51°00' E 001°41'713.9
2017-Jun-22 09:31N 50°58' E 001°51'0 0.7
2017-Jun-22 09:01N 50°58' E 001°52'0 0.0
2017-Jun-22 08:31N 50°58' E 001°52'0 0.0
2017-Jun-22 08:01N 50°58' E 001°52'0 0.0
2017-Jun-22 07:30N 50°58' E 001°52'0 0.0
2017-Jun-22 07:00N 50°58' E 001°52'0 0.0
2017-Jun-22 06:30N 50°58' E 001°52'0 0.0
2017-Jun-22 06:01N 50°58' E 001°52'0 0.0
2017-Jun-22 05:30N 50°58' E 001°52'0 0.0
2017-Jun-22 05:01N 50°58' E 001°52'0 0.0
2017-Jun-22 04:30N 50°58' E 001°52'0 0.0
2017-Jun-22 04:00N 50°58' E 001°52'0 0.0
2017-Jun-22 03:30N 50°58' E 001°52'0 0.0
2017-Jun-22 03:00N 50°58' E 001°52'0 0.0
2017-Jun-22 02:31N 50°58' E 001°52'0 0.0
2017-Jun-22 02:01N 50°58' E 001°52'0 0.0
2017-Jun-22 01:31N 50°58' E 001°52'0 0.0
2017-Jun-22 01:01N 50°58' E 001°52'0 0.0
2017-Jun-22 00:31N 50°58' E 001°52'0 0.0
2017-Jun-22 00:01N 50°58' E 001°52'0 0.0
2017-Jun-21 23:31N 50°58' E 001°52'0 0.0
2017-Jun-21 23:01N 50°58' E 001°52'0 0.0
2017-Jun-21 22:30N 50°58' E 001°52'0 0.0
2017-Jun-21 22:01N 50°58' E 001°52'0 0.0
2017-Jun-21 21:30N 50°58' E 001°52'0 0.0
2017-Jun-21 21:00N 50°58' E 001°52'0 0.0
2017-Jun-21 20:31N 50°58' E 001°52'0 0.0
2017-Jun-21 20:01N 50°58' E 001°52'3 5.6
2017-Jun-21 19:31N 50°58' E 001°47'815.9
2017-Jun-21 19:00N 50°60' E 001°35'815.1
2017-Jun-21 18:30N 51°05' E 001°26'4 9.0
2017-Jun-21 18:01N 51°08' E 001°20'0 0.0
2017-Jun-21 17:30N 51°08' E 001°20'0 0.0
2017-Jun-21 17:01N 51°08' E 001°20'0 0.0
2017-Jun-21 16:31N 51°08' E 001°20'0 0.0
2017-Jun-21 16:00N 51°08' E 001°20'0 0.0
2017-Jun-21 15:30N 51°08' E 001°20'0 0.0
2017-Jun-21 15:00N 51°08' E 001°20'0 0.0
2017-Jun-21 14:00N 51°08' E 001°20'0 0.0
2017-Jun-21 13:30N 51°08' E 001°20'0 0.0
2017-Jun-21 13:01N 51°08' E 001°20'0 0.0
2017-Jun-21 12:31N 51°08' E 001°20'0 0.0
2017-Jun-21 12:00N 51°08' E 001°20'0 0.7
2017-Jun-21 11:30N 51°07' E 001°20'0 0.7
2017-Jun-21 11:00N 51°07' E 001°20'714.2
2017-Jun-21 10:30N 51°02' E 001°27'917.0
2017-Jun-21 10:00N 50°53' E 001°27'918.4
2017-Jun-21 09:30N 50°44' E 001°23'917.6
2017-Jun-21 09:00N 50°37' E 001°15'917.3
2017-Jun-21 08:30N 50°31' E 001°05'2617.0
2017-Jun-21 06:59N 50°23' E 000°27'817.1
2017-Jun-21 06:30N 50°21' E 000°14'817.1
2017-Jun-21 06:00N 50°19' E 000°01'1817.1
2017-Jun-21 04:59N 50°15' W 000°26'817.1
2017-Jun-21 04:30N 50°14' W 000°38'917.1
2017-Jun-21 04:00N 50°12' W 000°51'2217.2
2017-Jun-21 02:43N 50°07' W 001°25'417.4
2017-Jun-21 02:30N 50°06' W 001°31'917.6
2017-Jun-21 01:59N 50°04' W 001°44'918.0
2017-Jun-21 01:31N 50°01' W 001°57'917.8
2017-Jun-21 01:00N 49°59' W 002°10'917.4
2017-Jun-21 00:31N 49°56' W 002°23'713.4
2017-Jun-21 00:00N 49°55' W 002°33'612.0
2017-Jun-20 23:30N 49°53' W 002°42'611.8
2017-Jun-20 23:00N 49°51' W 002°51'612.0
2017-Jun-20 22:30N 49°50' W 002°60'612.4
2017-Jun-20 22:00N 49°48' W 003°09'612.6
2017-Jun-20 21:30N 49°48' W 003°19'612.5
2017-Jun-20 21:00N 49°48' W 003°29'612.8
2017-Jun-20 20:30N 49°48' W 003°39'613.0
2017-Jun-20 20:00N 49°49' W 003°49'713.1
2017-Jun-20 19:30N 49°49' W 003°59'713.2
2017-Jun-20 19:00N 49°49' W 004°09'713.4
2017-Jun-20 18:30N 49°49' W 004°19'713.5
2017-Jun-20 18:00N 49°48' W 004°30'713.5
2017-Jun-20 17:30N 49°48' W 004°40'713.6
2017-Jun-20 17:00N 49°49' W 004°51'713.9
2017-Jun-20 16:30N 49°49' W 005°01'714.2
2017-Jun-20 16:00N 49°49' W 005°12'714.3
2017-Jun-20 15:30N 49°49' W 005°24'714.3
2017-Jun-20 15:00N 49°49' W 005°35'1414.3
2017-Jun-20 14:00N 49°53' W 005°56'612.5
2017-Jun-20 13:30N 49°58' W 006°02'814.3
2017-Jun-20 12:57N 50°06' W 006°01'613.9
2017-Jun-20 12:30N 50°12' W 006°01'713.7
2017-Jun-20 12:01N 50°19' W 006°01'713.8
2017-Jun-20 11:30N 50°26' W 005°60'713.8
2017-Jun-20 11:00N 50°32' W 005°60'714.0
2017-Jun-20 10:30N 50°39' W 005°60'714.3
2017-Jun-20 10:01N 50°47' W 005°60'714.4
2017-Jun-20 09:31N 50°54' W 006°00'714.6
2017-Jun-20 09:01N 51°01' W 006°00'714.7
2017-Jun-20 08:31N 51°08' W 006°00'714.6
2017-Jun-20 08:00N 51°16' W 006°01'714.7
2017-Jun-20 07:30N 51°23' W 006°01'714.6
2017-Jun-20 07:00N 51°30' W 006°01'814.3
2017-Jun-20 06:27N 51°38' W 006°00'614.2
2017-Jun-20 06:01N 51°44' W 005°58'813.9
2017-Jun-20 05:27N 51°52' W 005°55'913.4
2017-Jun-20 04:49N 52°00' W 005°52'11214.3
2017-Jun-19 20:59N 53°50' W 005°16'814.8
2017-Jun-19 20:28N 53°58' W 005°14'714.7
2017-Jun-19 20:01N 54°04' W 005°12'714.7
2017-Jun-19 19:31N 54°11' W 005°10'714.6
2017-Jun-19 19:01N 54°19' W 005°08'714.7
2017-Jun-19 18:31N 54°26' W 005°08'714.2
2017-Jun-19 18:01N 54°33' W 005°13'815.4
2017-Jun-19 17:31N 54°39' W 005°20'816.0
2017-Jun-19 17:01N 54°45' W 005°28'815.8
2017-Jun-19 16:31N 54°50' W 005°39'510.5
2017-Jun-19 16:00N 54°51' W 005°48'0 0.6
2017-Jun-19 15:30N 54°51' W 005°48'0 0.0
2017-Jun-19 15:00N 54°51' W 005°48'0 0.0
2017-Jun-19 14:30N 54°51' W 005°48'0 0.0
2017-Jun-19 13:30N 54°51' W 005°48'0 0.0
2017-Jun-19 13:00N 54°51' W 005°48'0 0.0
2017-Jun-19 12:30N 54°51' W 005°48'0 0.0
2017-Jun-19 12:00N 54°51' W 005°48'0 0.0
2017-Jun-19 11:30N 54°51' W 005°48'0 0.0
2017-Jun-19 11:00N 54°51' W 005°48'0 0.0
2017-Jun-19 10:30N 54°51' W 005°48'0 0.0
2017-Jun-19 10:00N 54°51' W 005°48'0 0.0
2017-Jun-19 09:30N 54°51' W 005°48'0 0.2
2017-Jun-19 09:01N 54°51' W 005°48'0 0.1
2017-Jun-19 08:31N 54°51' W 005°48'1 2.4
2017-Jun-19 08:00N 54°52' W 005°47'1019.7
2017-Jun-19 07:30N 54°56' W 005°32'1019.8
2017-Jun-19 07:00N 55°00' W 005°16'815.0
2017-Jun-19 06:30N 54°59' W 005°03'2 3.6
2017-Jun-19 06:01N 54°58' W 005°01'0 0.0
2017-Jun-19 05:30N 54°58' W 005°01'0 0.0
2017-Jun-19 05:01N 54°58' W 005°01'5 7.9
2017-Jun-19 04:23N 55°02' W 005°06'717.6
2017-Jun-19 04:00N 54°59' W 005°17'918.8
2017-Jun-19 03:30N 54°55' W 005°32'1019.1
2017-Jun-19 03:00N 54°52' W 005°48'1 1.6
2017-Jun-19 02:31N 54°51' W 005°48'0 0.0
2017-Jun-19 02:00N 54°51' W 005°48'0 0.0
2017-Jun-19 01:30N 54°51' W 005°48'0 0.0
2017-Jun-19 01:01N 54°51' W 005°48'0 0.0
2017-Jun-19 00:30N 54°51' W 005°48'0 0.0
2017-Jun-19 00:00N 54°51' W 005°48'2 4.3
2017-Jun-18 23:30N 54°52' W 005°46'1019.3
2017-Jun-18 23:00N 54°58' W 005°31'1019.5
2017-Jun-18 22:30N 55°01' W 005°15'714.7
2017-Jun-18 22:00N 54°59' W 005°03'2 3.2
2017-Jun-18 21:30N 54°58' W 005°01'0 0.0
2017-Jun-18 21:01N 54°58' W 005°01'5 8.7
2017-Jun-18 20:28N 55°02' W 005°06'918.9
2017-Jun-18 20:01N 54°59' W 005°20'918.9
2017-Jun-18 19:31N 54°55' W 005°35'816.4
2017-Jun-18 19:01N 54°51' W 005°48'0 0.3
2017-Jun-18 18:30N 54°51' W 005°48'0 0.0
2017-Jun-18 18:00N 54°51' W 005°48'0 0.0
2017-Jun-18 17:30N 54°51' W 005°48'3 6.3
2017-Jun-18 17:00N 54°53' W 005°43'1019.1
2017-Jun-18 16:30N 54°57' W 005°28'1019.3
2017-Jun-18 16:00N 55°01' W 005°13'714.1
2017-Jun-18 15:30N 54°58' W 005°02'1 1.9
2017-Jun-18 15:00N 54°58' W 005°01'0 0.0
2017-Jun-18 14:00N 54°58' W 005°01'3 6.8
2017-Jun-18 13:30N 55°01' W 005°04'816.2
2017-Jun-18 13:00N 54°59' W 005°18'1019.0
2017-Jun-18 12:30N 54°55' W 005°33'918.0
2017-Jun-18 12:00N 54°51' W 005°48'0 0.9
2017-Jun-18 11:30N 54°51' W 005°48'0 0.0
2017-Jun-18 11:00N 54°51' W 005°48'0 0.0
2017-Jun-18 10:30N 54°51' W 005°48'0 0.0
2017-Jun-18 10:00N 54°51' W 005°48'0 0.0
2017-Jun-18 09:30N 54°51' W 005°48'0 0.0
2017-Jun-18 09:00N 54°51' W 005°48'0 0.0
2017-Jun-18 08:30N 54°51' W 005°48'2 3.8
2017-Jun-18 08:00N 54°52' W 005°46'1019.8
2017-Jun-18 07:30N 54°56' W 005°30'1019.2
2017-Jun-18 07:00N 55°00' W 005°15'714.8
2017-Jun-18 06:30N 54°59' W 005°03'  

Dump ship's entire track history